Achilles Bulker — HPOA — position and weather

sailwx.info

Track history (hours):
 
Tides and Currents Weather Stations Pressure Air Temp Water Temp Dewpoint Dewpoint Depression Visibility Wind Speed Wind Dir Waves Ship Positions

Achilles Bulker

Last reported at 2018-Feb-06 01:49 UTC. Time now 2018-Feb-21 05:23 UTC.
Position N 37°12' E 004°10'.
Warning: this ship's position is 15 days out of date.

Length 177 m; draft 9.5 m.

Type: Cargo ship. MMSI: 355170000.

Date/timePositionNaut miles runAvg speedWind from/ knotsBaromVisibWave heightAir tempDewpointWater temp
2018-Feb-06 01:49N 37°12' E 004°10'412.8
2018-Feb-06 01:30N 37°11' E 004°05'612.7
2018-Feb-06 01:00N 37°10' E 003°57'612.0
2018-Feb-06 00:30N 37°10' E 003°50'612.1
2018-Feb-06 00:00N 37°09' E 003°42'712.3
2018-Feb-05 23:28N 37°08' E 003°34'43613.6
2018-Feb-04 15:30N 35°58' W 005°22'815.0
2018-Feb-04 15:00N 35°56' W 005°31'25711.7
2018-Feb-03 17:03N 38°18' W 009°59'413.9
2018-Feb-03 16:48N 38°21' W 010°00'1113.8
2018-Feb-03 16:00N 38°32' W 010°03'714.1
2018-Feb-03 15:30N 38°39' W 010°05'713.6
2018-Feb-03 15:00N 38°46' W 010°06'713.3
2018-Feb-03 14:29N 38°53' W 010°06'612.8
2018-Feb-03 14:00N 38°59' W 010°06'612.8
2018-Feb-03 13:30N 39°05' W 010°06'713.4
2018-Feb-03 13:00N 39°12' W 010°06'  
2018-Jan-31 23:32N 49°44' W 003°33'611.3
2018-Jan-31 23:00N 49°47' W 003°25'510.6
2018-Jan-31 22:30N 49°50' W 003°18'1510.1
2018-Jan-31 21:00N 49°57' W 002°57'5 9.0
2018-Jan-31 20:30N 49°59' W 002°50'4 8.3
2018-Jan-31 20:00N 49°60' W 002°44'4 8.2
2018-Jan-31 19:30N 50°01' W 002°38'5 7.6
2018-Jan-31 18:53N 50°01' W 002°31'20 8.4
2018-Jan-31 16:30N 49°59' W 002°00'611.3
2018-Jan-31 16:01N 49°57' W 001°52'612.1
2018-Jan-31 15:31N 49°55' W 001°43'713.3
2018-Jan-31 15:00N 49°53' W 001°33'714.5
2018-Jan-31 14:30N 49°50' W 001°23'2214.6
2018-Jan-31 13:00N 49°42' W 000°51'713.6
2018-Jan-31 12:30N 49°39' W 000°42'612.9
2018-Jan-31 12:00N 49°37' W 000°33'612.5
2018-Jan-31 11:30N 49°34' W 000°24'612.2
2018-Jan-31 11:00N 49°32' W 000°15'611.9
2018-Jan-31 10:30N 49°30' W 000°06'5 9.6
2018-Jan-31 10:00N 49°27' E 000°00'510.6
2018-Jan-31 09:30N 49°26' E 000°08'510.8
2018-Jan-31 09:00N 49°26' E 000°16'510.1
2018-Jan-31 08:30N 49°27' E 000°24'4 8.6
2018-Jan-31 08:00N 49°29' E 000°29'3 6.2
2018-Jan-31 07:30N 49°27' E 000°33'3 6.7
2018-Jan-31 07:00N 49°26' E 000°38'5 9.8
2018-Jan-31 06:30N 49°31' E 000°41'4 7.3
2018-Jan-31 06:00N 49°30' E 000°46'4 8.2
2018-Jan-31 05:30N 49°26' E 000°48'3 5.9
2018-Jan-31 05:00N 49°25' E 000°52'5 9.0
2018-Jan-31 04:30N 49°29' E 000°54'5 9.1
2018-Jan-31 04:00N 49°25' E 000°56'4 7.9
2018-Jan-31 03:30N 49°21' E 000°58'1 1.6
2018-Jan-31 02:59N 49°22' E 000°59'0 0.0
2018-Jan-31 02:29N 49°22' E 000°59'0 0.0
2018-Jan-31 01:59N 49°22' E 000°59'0 0.0
2018-Jan-31 01:26N 49°22' E 000°59'0 0.0
2018-Jan-31 00:59N 49°22' E 000°59'0 0.0
2018-Jan-30 23:56N 49°22' E 000°59'0 0.0
2018-Jan-30 23:29N 49°22' E 000°59'0 0.0
2018-Jan-30 22:56N 49°22' E 000°59'0 0.0
2018-Jan-30 22:29N 49°22' E 000°59'0 0.0
2018-Jan-30 21:29N 49°22' E 000°59'0 0.0
2018-Jan-30 20:59N 49°22' E 000°59'0 0.0
2018-Jan-30 20:29N 49°22' E 000°59'0 0.0
2018-Jan-30 19:59N 49°22' E 000°59'0 0.0
2018-Jan-30 19:26N 49°22' E 000°59'0 0.0
2018-Jan-30 18:59N 49°22' E 000°59'0 0.0
2018-Jan-30 18:29N 49°22' E 000°59'0 0.0
2018-Jan-30 17:59N 49°22' E 000°59'0 0.0
2018-Jan-30 17:26N 49°22' E 000°59'0 0.0
2018-Jan-30 16:59N 49°22' E 000°59'0 0.0
2018-Jan-30 16:29N 49°22' E 000°59'0 0.0
2018-Jan-30 15:59N 49°22' E 000°59'0 0.0
2018-Jan-30 15:26N 49°22' E 000°59'0 0.0
2018-Jan-30 14:59N 49°22' E 000°59'0 0.0
2018-Jan-30 14:29N 49°22' E 000°59'0 0.0
2018-Jan-30 13:29N 49°22' E 000°59'0 0.0
2018-Jan-30 12:59N 49°22' E 000°59'0 0.0
2018-Jan-30 12:29N 49°22' E 000°59'0 0.0
2018-Jan-30 11:59N 49°22' E 000°59'0 0.0
2018-Jan-30 11:26N 49°22' E 000°59'0 0.0
2018-Jan-30 10:29N 49°22' E 000°59'0 0.0
2018-Jan-30 09:31N 49°22' E 000°59'0 0.0
2018-Jan-30 09:00N 49°22' E 000°59'0 0.0
2018-Jan-30 08:30N 49°22' E 000°59'0 0.0
2018-Jan-30 08:01N 49°22' E 000°59'0 0.0
2018-Jan-30 07:30N 49°22' E 000°59'0 0.0
2018-Jan-30 07:01N 49°22' E 000°59'0 0.0
2018-Jan-30 06:31N 49°22' E 000°59'0 0.0
2018-Jan-30 06:00N 49°22' E 000°59'0 0.0
2018-Jan-30 05:30N 49°22' E 000°59'0 0.0
2018-Jan-30 05:01N 49°22' E 000°59'0 0.0
2018-Jan-30 04:30N 49°22' E 000°59'0 0.0
2018-Jan-30 04:00N 49°22' E 000°59'0 0.0
2018-Jan-30 03:31N 49°22' E 000°59'0 0.0
2018-Jan-30 03:01N 49°22' E 000°59'0 0.0
2018-Jan-30 02:30N 49°22' E 000°59'0 0.0
2018-Jan-30 02:01N 49°22' E 000°59'0 0.0
2018-Jan-30 01:31N 49°22' E 000°59'0 0.0
2018-Jan-30 01:01N 49°22' E 000°59'0 0.0
2018-Jan-30 00:31N 49°22' E 000°59'0 0.0
2018-Jan-30 00:00N 49°22' E 000°59'0 0.0
2018-Jan-29 23:30N 49°22' E 000°59'0 0.0
2018-Jan-29 23:01N 49°22' E 000°59'0 0.0
2018-Jan-29 22:30N 49°22' E 000°59'0 0.0
2018-Jan-29 22:01N 49°22' E 000°59'0 0.0
2018-Jan-29 21:31N 49°22' E 000°59'2 3.5
2018-Jan-29 21:01N 49°23' E 001°01'0 0.8
2018-Jan-29 20:30N 49°24' E 001°01'0 0.0
2018-Jan-29 20:00N 49°24' E 001°01'0 0.0
2018-Jan-29 19:30N 49°24' E 001°01'0 0.0
2018-Jan-29 19:00N 49°24' E 001°01'0 0.0
2018-Jan-29 18:30N 49°24' E 001°01'0 0.0
2018-Jan-29 18:00N 49°24' E 001°01'0 0.0
2018-Jan-29 17:30N 49°24' E 001°01'0 0.0
2018-Jan-29 17:00N 49°24' E 001°01'0 0.0
2018-Jan-29 16:30N 49°24' E 001°01'0 0.0
2018-Jan-29 16:00N 49°24' E 001°01'0 0.0
2018-Jan-29 15:30N 49°24' E 001°01'0 0.0
2018-Jan-29 15:00N 49°24' E 001°01'0 0.0
2018-Jan-29 14:30N 49°24' E 001°01'0 0.0
2018-Jan-29 14:00N 49°24' E 001°01'0 0.0
2018-Jan-29 13:30N 49°24' E 001°01'0 0.0
2018-Jan-29 13:00N 49°24' E 001°01'0 0.0
2018-Jan-29 12:30N 49°24' E 001°01'0 0.0
2018-Jan-29 12:00N 49°24' E 001°01'0 0.0
2018-Jan-29 11:27N 49°24' E 001°01'0 0.0
2018-Jan-29 11:00N 49°24' E 001°01'0 0.0
2018-Jan-29 10:30N 49°24' E 001°01'0 0.0
2018-Jan-29 10:00N 49°24' E 001°01'0 0.0
2018-Jan-29 09:30N 49°24' E 001°01'0 0.0
2018-Jan-29 09:00N 49°24' E 001°01'0 0.0
2018-Jan-29 08:30N 49°24' E 001°01'0 0.0
2018-Jan-29 07:54N 49°24' E 001°01'0 0.0
2018-Jan-29 07:30N 49°24' E 001°01'0 0.0
2018-Jan-29 07:00N 49°24' E 001°01'0 0.0
2018-Jan-29 06:27N 49°24' E 001°01'0 0.0
2018-Jan-29 06:00N 49°24' E 001°01'0 0.0
2018-Jan-29 05:30N 49°24' E 001°01'0 0.0
2018-Jan-29 05:00N 49°24' E 001°01'0 0.0
2018-Jan-29 04:30N 49°24' E 001°01'0 0.0
2018-Jan-29 04:00N 49°24' E 001°01'0 0.0
2018-Jan-29 03:30N 49°24' E 001°01'0 0.0
2018-Jan-29 03:00N 49°24' E 001°01'0 0.0
2018-Jan-29 02:30N 49°24' E 001°01'0 0.0
2018-Jan-29 02:00N 49°24' E 001°01'0 0.0
2018-Jan-29 01:27N 49°24' E 001°01'0 0.0
2018-Jan-29 01:00N 49°24' E 001°01'0 0.0
2018-Jan-29 00:30N 49°24' E 001°01'0 0.0
2018-Jan-29 00:00N 49°24' E 001°01'0 0.0
2018-Jan-28 23:27N 49°24' E 001°01'0 0.0
2018-Jan-28 23:00N 49°24' E 001°01'0 0.0
2018-Jan-28 22:30N 49°24' E 001°01'0 0.0
2018-Jan-28 22:00N 49°24' E 001°01'0 0.0
2018-Jan-28 21:30N 49°24' E 001°01'0 0.0
2018-Jan-28 21:00N 49°24' E 001°01'0 0.0
2018-Jan-28 20:30N 49°24' E 001°01'0 0.0
2018-Jan-28 20:00N 49°24' E 001°01'0 0.0
2018-Jan-28 19:30N 49°24' E 001°01'0 0.0
2018-Jan-28 19:00N 49°24' E 001°01'0 0.0
2018-Jan-28 18:30N 49°24' E 001°01'0 0.0
2018-Jan-28 18:00N 49°24' E 001°01'0 0.0
2018-Jan-28 17:30N 49°24' E 001°01'0 0.0
2018-Jan-28 17:00N 49°24' E 001°01'0 0.0
2018-Jan-28 16:30N 49°24' E 001°01'0 0.0
2018-Jan-28 16:00N 49°24' E 001°01'0 0.0
2018-Jan-28 15:30N 49°24' E 001°01'0 0.0
2018-Jan-28 15:00N 49°24' E 001°01'0 0.0
2018-Jan-28 14:30N 49°24' E 001°01'0 0.0
2018-Jan-28 13:57N 49°24' E 001°01'0 0.0
2018-Jan-28 13:30N 49°24' E 001°01'0 0.0
2018-Jan-28 13:00N 49°24' E 001°01'0 0.0
2018-Jan-28 12:30N 49°24' E 001°01'0 0.0
2018-Jan-28 12:00N 49°24' E 001°01'0 0.0
2018-Jan-28 11:30N 49°24' E 001°01'0 0.0
2018-Jan-28 11:01N 49°24' E 001°01'0 0.0
2018-Jan-28 10:30N 49°24' E 001°01'0 0.0
2018-Jan-28 10:00N 49°24' E 001°01'0 0.0
2018-Jan-28 09:30N 49°24' E 001°01'0 0.0
2018-Jan-28 09:00N 49°24' E 001°01'0 0.0
2018-Jan-28 08:30N 49°24' E 001°01'0 0.0
2018-Jan-28 08:00N 49°24' E 001°01'0 0.0
2018-Jan-28 07:30N 49°24' E 001°01'0 0.0
2018-Jan-28 07:00N 49°24' E 001°01'0 0.0
2018-Jan-28 06:30N 49°24' E 001°01'0 0.0
2018-Jan-28 06:00N 49°24' E 001°01'0 0.0
2018-Jan-28 05:30N 49°24' E 001°01'0 0.0
2018-Jan-28 04:57N 49°24' E 001°01'0 0.0
2018-Jan-28 04:30N 49°24' E 001°01'0 0.0
2018-Jan-28 04:00N 49°24' E 001°01'0 0.0
2018-Jan-28 03:30N 49°24' E 001°01'0 0.0
2018-Jan-28 03:00N 49°24' E 001°01'0 0.0
2018-Jan-28 02:30N 49°24' E 001°01'0 0.0
2018-Jan-28 02:00N 49°24' E 001°01'0 0.0
2018-Jan-28 01:30N 49°24' E 001°01'0 0.0
2018-Jan-28 01:00N 49°24' E 001°01'0 0.0
2018-Jan-28 00:30N 49°24' E 001°01'0 0.0
2018-Jan-28 00:00N 49°24' E 001°01'0 0.0
2018-Jan-27 23:30N 49°24' E 001°01'0 0.0
2018-Jan-27 23:00N 49°24' E 001°01'0 0.0
2018-Jan-27 22:30N 49°24' E 001°01'0 0.0
2018-Jan-27 22:00N 49°24' E 001°01'0 0.0
2018-Jan-27 21:30N 49°24' E 001°01'0 0.0
2018-Jan-27 21:00N 49°24' E 001°01'0 0.0
2018-Jan-27 20:27N 49°24' E 001°01'0 1.1
2018-Jan-27 20:01N 49°23' E 001°01'2 4.5
2018-Jan-27 19:30N 49°21' E 000°59'4 7.5
2018-Jan-27 19:00N 49°24' E 000°56'5 9.8
2018-Jan-27 18:30N 49°29' E 000°54'510.9
2018-Jan-27 18:00N 49°24' E 000°52'4 8.9
2018-Jan-27 17:30N 49°28' E 000°49'510.2
2018-Jan-27 17:00N 49°31' E 000°43'611.1
2018-Jan-27 16:30N 49°27' E 000°39'510.1
2018-Jan-27 16:00N 49°29' E 000°31'611.8
2018-Jan-27 15:31N 49°27' E 000°23'612.4
2018-Jan-27 15:00N 49°26' E 000°14'612.4
2018-Jan-27 14:30N 49°27' E 000°04'612.3
2018-Jan-27 14:01N 49°29' W 000°05'4 7.1
2018-Jan-27 13:29N 49°29' W 000°10'0 0.1
2018-Jan-27 13:00N 49°30' W 000°10'0 0.1
2018-Jan-27 12:30N 49°29' W 000°10'0 0.0
2018-Jan-27 11:59N 49°29' W 000°10'0 0.0
2018-Jan-27 11:29N 49°29' W 000°10'0 0.1
2018-Jan-27 10:59N 49°29' W 000°10'0 0.0
2018-Jan-27 10:30N 49°29' W 000°10'0 0.0
2018-Jan-27 09:59N 49°29' W 000°10'0 0.0
2018-Jan-27 09:29N 49°29' W 000°10'0 0.0
2018-Jan-27 08:59N 49°29' W 000°10'0 0.0
2018-Jan-27 08:29N 49°29' W 000°10'0 0.0
2018-Jan-27 07:56N 49°29' W 000°10'0 0.1
2018-Jan-27 07:29N 49°30' W 000°10'0 0.1
2018-Jan-27 07:00N 49°30' W 000°10'0 0.1
2018-Jan-27 06:29N 49°29' W 000°10'0 0.1
2018-Jan-27 05:59N 49°29' W 000°10'0 0.0
2018-Jan-27 05:30N 49°29' W 000°10'0 0.0
2018-Jan-27 04:59N 49°29' W 000°10'0 0.0
2018-Jan-27 04:29N 49°29' W 000°10'0 0.0
2018-Jan-27 03:59N 49°29' W 000°10'0 0.0
2018-Jan-27 03:26N 49°29' W 000°10'0 0.0
2018-Jan-27 02:59N 49°29' W 000°10'0 0.0
2018-Jan-27 02:29N 49°29' W 000°10'0 0.1
2018-Jan-27 02:00N 49°29' W 000°10'  
Track history (hours):
 
Tides and Currents Weather Stations Pressure Air Temp Water Temp Dewpoint Dewpoint Depression Visibility Wind Speed Wind Dir Waves Ship Positions

Achilles Bulker

Last reported at 2018-Feb-06 01:49 UTC. Time now 2018-Feb-21 05:23 UTC.
Position N 37°12' E 004°10'.
Warning: this ship's position is 15 days out of date.

Length 177 m; draft 9.5 m.

Type: Cargo ship. MMSI: 355170000.

Date/timePositionNaut miles runAvg speedWind from/ knotsBaromVisibWave heightAir tempDewpointWater temp
2018-Feb-06 01:49N 37°12' E 004°10'412.8
2018-Feb-06 01:30N 37°11' E 004°05'612.7
2018-Feb-06 01:00N 37°10' E 003°57'612.0
2018-Feb-06 00:30N 37°10' E 003°50'612.1
2018-Feb-06 00:00N 37°09' E 003°42'712.3
2018-Feb-05 23:28N 37°08' E 003°34'43613.6
2018-Feb-04 15:30N 35°58' W 005°22'815.0
2018-Feb-04 15:00N 35°56' W 005°31'25711.7
2018-Feb-03 17:03N 38°18' W 009°59'413.9
2018-Feb-03 16:48N 38°21' W 010°00'1113.8
2018-Feb-03 16:00N 38°32' W 010°03'714.1
2018-Feb-03 15:30N 38°39' W 010°05'713.6
2018-Feb-03 15:00N 38°46' W 010°06'713.3
2018-Feb-03 14:29N 38°53' W 010°06'612.8
2018-Feb-03 14:00N 38°59' W 010°06'612.8
2018-Feb-03 13:30N 39°05' W 010°06'713.4
2018-Feb-03 13:00N 39°12' W 010°06'  
2018-Jan-31 23:32N 49°44' W 003°33'611.3
2018-Jan-31 23:00N 49°47' W 003°25'510.6
2018-Jan-31 22:30N 49°50' W 003°18'1510.1
2018-Jan-31 21:00N 49°57' W 002°57'5 9.0
2018-Jan-31 20:30N 49°59' W 002°50'4 8.3
2018-Jan-31 20:00N 49°60' W 002°44'4 8.2
2018-Jan-31 19:30N 50°01' W 002°38'5 7.6
2018-Jan-31 18:53N 50°01' W 002°31'20 8.4
2018-Jan-31 16:30N 49°59' W 002°00'611.3
2018-Jan-31 16:01N 49°57' W 001°52'612.1
2018-Jan-31 15:31N 49°55' W 001°43'713.3
2018-Jan-31 15:00N 49°53' W 001°33'714.5
2018-Jan-31 14:30N 49°50' W 001°23'2214.6
2018-Jan-31 13:00N 49°42' W 000°51'713.6
2018-Jan-31 12:30N 49°39' W 000°42'612.9
2018-Jan-31 12:00N 49°37' W 000°33'612.5
2018-Jan-31 11:30N 49°34' W 000°24'612.2
2018-Jan-31 11:00N 49°32' W 000°15'611.9
2018-Jan-31 10:30N 49°30' W 000°06'5 9.6
2018-Jan-31 10:00N 49°27' E 000°00'510.6
2018-Jan-31 09:30N 49°26' E 000°08'510.8
2018-Jan-31 09:00N 49°26' E 000°16'510.1
2018-Jan-31 08:30N 49°27' E 000°24'4 8.6
2018-Jan-31 08:00N 49°29' E 000°29'3 6.2
2018-Jan-31 07:30N 49°27' E 000°33'3 6.7
2018-Jan-31 07:00N 49°26' E 000°38'5 9.8
2018-Jan-31 06:30N 49°31' E 000°41'4 7.3
2018-Jan-31 06:00N 49°30' E 000°46'4 8.2
2018-Jan-31 05:30N 49°26' E 000°48'3 5.9
2018-Jan-31 05:00N 49°25' E 000°52'5 9.0
2018-Jan-31 04:30N 49°29' E 000°54'5 9.1
2018-Jan-31 04:00N 49°25' E 000°56'4 7.9
2018-Jan-31 03:30N 49°21' E 000°58'1 1.6
2018-Jan-31 02:59N 49°22' E 000°59'0 0.0
2018-Jan-31 02:29N 49°22' E 000°59'0 0.0
2018-Jan-31 01:59N 49°22' E 000°59'0 0.0
2018-Jan-31 01:26N 49°22' E 000°59'0 0.0
2018-Jan-31 00:59N 49°22' E 000°59'0 0.0
2018-Jan-30 23:56N 49°22' E 000°59'0 0.0
2018-Jan-30 23:29N 49°22' E 000°59'0 0.0
2018-Jan-30 22:56N 49°22' E 000°59'0 0.0
2018-Jan-30 22:29N 49°22' E 000°59'0 0.0
2018-Jan-30 21:29N 49°22' E 000°59'0 0.0
2018-Jan-30 20:59N 49°22' E 000°59'0 0.0
2018-Jan-30 20:29N 49°22' E 000°59'0 0.0
2018-Jan-30 19:59N 49°22' E 000°59'0 0.0
2018-Jan-30 19:26N 49°22' E 000°59'0 0.0
2018-Jan-30 18:59N 49°22' E 000°59'0 0.0
2018-Jan-30 18:29N 49°22' E 000°59'0 0.0
2018-Jan-30 17:59N 49°22' E 000°59'0 0.0
2018-Jan-30 17:26N 49°22' E 000°59'0 0.0
2018-Jan-30 16:59N 49°22' E 000°59'0 0.0
2018-Jan-30 16:29N 49°22' E 000°59'0 0.0
2018-Jan-30 15:59N 49°22' E 000°59'0 0.0
2018-Jan-30 15:26N 49°22' E 000°59'0 0.0
2018-Jan-30 14:59N 49°22' E 000°59'0 0.0
2018-Jan-30 14:29N 49°22' E 000°59'0 0.0
2018-Jan-30 13:29N 49°22' E 000°59'0 0.0
2018-Jan-30 12:59N 49°22' E 000°59'0 0.0
2018-Jan-30 12:29N 49°22' E 000°59'0 0.0
2018-Jan-30 11:59N 49°22' E 000°59'0 0.0
2018-Jan-30 11:26N 49°22' E 000°59'0 0.0
2018-Jan-30 10:29N 49°22' E 000°59'0 0.0
2018-Jan-30 09:31N 49°22' E 000°59'0 0.0
2018-Jan-30 09:00N 49°22' E 000°59'0 0.0
2018-Jan-30 08:30N 49°22' E 000°59'0 0.0
2018-Jan-30 08:01N 49°22' E 000°59'0 0.0
2018-Jan-30 07:30N 49°22' E 000°59'0 0.0
2018-Jan-30 07:01N 49°22' E 000°59'0 0.0
2018-Jan-30 06:31N 49°22' E 000°59'0 0.0
2018-Jan-30 06:00N 49°22' E 000°59'0 0.0
2018-Jan-30 05:30N 49°22' E 000°59'0 0.0
2018-Jan-30 05:01N 49°22' E 000°59'0 0.0
2018-Jan-30 04:30N 49°22' E 000°59'0 0.0
2018-Jan-30 04:00N 49°22' E 000°59'0 0.0
2018-Jan-30 03:31N 49°22' E 000°59'0 0.0
2018-Jan-30 03:01N 49°22' E 000°59'0 0.0
2018-Jan-30 02:30N 49°22' E 000°59'0 0.0
2018-Jan-30 02:01N 49°22' E 000°59'0 0.0
2018-Jan-30 01:31N 49°22' E 000°59'0 0.0
2018-Jan-30 01:01N 49°22' E 000°59'0 0.0
2018-Jan-30 00:31N 49°22' E 000°59'0 0.0
2018-Jan-30 00:00N 49°22' E 000°59'0 0.0
2018-Jan-29 23:30N 49°22' E 000°59'0 0.0
2018-Jan-29 23:01N 49°22' E 000°59'0 0.0
2018-Jan-29 22:30N 49°22' E 000°59'0 0.0
2018-Jan-29 22:01N 49°22' E 000°59'0 0.0
2018-Jan-29 21:31N 49°22' E 000°59'2 3.5
2018-Jan-29 21:01N 49°23' E 001°01'0 0.8
2018-Jan-29 20:30N 49°24' E 001°01'0 0.0
2018-Jan-29 20:00N 49°24' E 001°01'0 0.0
2018-Jan-29 19:30N 49°24' E 001°01'0 0.0
2018-Jan-29 19:00N 49°24' E 001°01'0 0.0
2018-Jan-29 18:30N 49°24' E 001°01'0 0.0
2018-Jan-29 18:00N 49°24' E 001°01'0 0.0
2018-Jan-29 17:30N 49°24' E 001°01'0 0.0
2018-Jan-29 17:00N 49°24' E 001°01'0 0.0
2018-Jan-29 16:30N 49°24' E 001°01'0 0.0
2018-Jan-29 16:00N 49°24' E 001°01'0 0.0
2018-Jan-29 15:30N 49°24' E 001°01'0 0.0
2018-Jan-29 15:00N 49°24' E 001°01'0 0.0
2018-Jan-29 14:30N 49°24' E 001°01'0 0.0
2018-Jan-29 14:00N 49°24' E 001°01'0 0.0
2018-Jan-29 13:30N 49°24' E 001°01'0 0.0
2018-Jan-29 13:00N 49°24' E 001°01'0 0.0
2018-Jan-29 12:30N 49°24' E 001°01'0 0.0
2018-Jan-29 12:00N 49°24' E 001°01'0 0.0
2018-Jan-29 11:27N 49°24' E 001°01'0 0.0
2018-Jan-29 11:00N 49°24' E 001°01'0 0.0
2018-Jan-29 10:30N 49°24' E 001°01'0 0.0
2018-Jan-29 10:00N 49°24' E 001°01'0 0.0
2018-Jan-29 09:30N 49°24' E 001°01'0 0.0
2018-Jan-29 09:00N 49°24' E 001°01'0 0.0
2018-Jan-29 08:30N 49°24' E 001°01'0 0.0
2018-Jan-29 07:54N 49°24' E 001°01'0 0.0
2018-Jan-29 07:30N 49°24' E 001°01'0 0.0
2018-Jan-29 07:00N 49°24' E 001°01'0 0.0
2018-Jan-29 06:27N 49°24' E 001°01'0 0.0
2018-Jan-29 06:00N 49°24' E 001°01'0 0.0
2018-Jan-29 05:30N 49°24' E 001°01'0 0.0
2018-Jan-29 05:00N 49°24' E 001°01'0 0.0
2018-Jan-29 04:30N 49°24' E 001°01'0 0.0
2018-Jan-29 04:00N 49°24' E 001°01'0 0.0
2018-Jan-29 03:30N 49°24' E 001°01'0 0.0
2018-Jan-29 03:00N 49°24' E 001°01'0 0.0
2018-Jan-29 02:30N 49°24' E 001°01'0 0.0
2018-Jan-29 02:00N 49°24' E 001°01'0 0.0
2018-Jan-29 01:27N 49°24' E 001°01'0 0.0
2018-Jan-29 01:00N 49°24' E 001°01'0 0.0
2018-Jan-29 00:30N 49°24' E 001°01'0 0.0
2018-Jan-29 00:00N 49°24' E 001°01'0 0.0
2018-Jan-28 23:27N 49°24' E 001°01'0 0.0
2018-Jan-28 23:00N 49°24' E 001°01'0 0.0
2018-Jan-28 22:30N 49°24' E 001°01'0 0.0
2018-Jan-28 22:00N 49°24' E 001°01'0 0.0
2018-Jan-28 21:30N 49°24' E 001°01'0 0.0
2018-Jan-28 21:00N 49°24' E 001°01'0 0.0
2018-Jan-28 20:30N 49°24' E 001°01'0 0.0
2018-Jan-28 20:00N 49°24' E 001°01'0 0.0
2018-Jan-28 19:30N 49°24' E 001°01'0 0.0
2018-Jan-28 19:00N 49°24' E 001°01'0 0.0
2018-Jan-28 18:30N 49°24' E 001°01'0 0.0
2018-Jan-28 18:00N 49°24' E 001°01'0 0.0
2018-Jan-28 17:30N 49°24' E 001°01'0 0.0
2018-Jan-28 17:00N 49°24' E 001°01'0 0.0
2018-Jan-28 16:30N 49°24' E 001°01'0 0.0
2018-Jan-28 16:00N 49°24' E 001°01'0 0.0
2018-Jan-28 15:30N 49°24' E 001°01'0 0.0
2018-Jan-28 15:00N 49°24' E 001°01'0 0.0
2018-Jan-28 14:30N 49°24' E 001°01'0 0.0
2018-Jan-28 13:57N 49°24' E 001°01'0 0.0
2018-Jan-28 13:30N 49°24' E 001°01'0 0.0
2018-Jan-28 13:00N 49°24' E 001°01'0 0.0
2018-Jan-28 12:30N 49°24' E 001°01'0 0.0
2018-Jan-28 12:00N 49°24' E 001°01'0 0.0
2018-Jan-28 11:30N 49°24' E 001°01'0 0.0
2018-Jan-28 11:01N 49°24' E 001°01'0 0.0
2018-Jan-28 10:30N 49°24' E 001°01'0 0.0
2018-Jan-28 10:00N 49°24' E 001°01'0 0.0
2018-Jan-28 09:30N 49°24' E 001°01'0 0.0
2018-Jan-28 09:00N 49°24' E 001°01'0 0.0
2018-Jan-28 08:30N 49°24' E 001°01'0 0.0
2018-Jan-28 08:00N 49°24' E 001°01'0 0.0
2018-Jan-28 07:30N 49°24' E 001°01'0 0.0
2018-Jan-28 07:00N 49°24' E 001°01'0 0.0
2018-Jan-28 06:30N 49°24' E 001°01'0 0.0
2018-Jan-28 06:00N 49°24' E 001°01'0 0.0
2018-Jan-28 05:30N 49°24' E 001°01'0 0.0
2018-Jan-28 04:57N 49°24' E 001°01'0 0.0
2018-Jan-28 04:30N 49°24' E 001°01'0 0.0
2018-Jan-28 04:00N 49°24' E 001°01'0 0.0
2018-Jan-28 03:30N 49°24' E 001°01'0 0.0
2018-Jan-28 03:00N 49°24' E 001°01'0 0.0
2018-Jan-28 02:30N 49°24' E 001°01'0 0.0
2018-Jan-28 02:00N 49°24' E 001°01'0 0.0
2018-Jan-28 01:30N 49°24' E 001°01'0 0.0
2018-Jan-28 01:00N 49°24' E 001°01'0 0.0
2018-Jan-28 00:30N 49°24' E 001°01'0 0.0
2018-Jan-28 00:00N 49°24' E 001°01'0 0.0
2018-Jan-27 23:30N 49°24' E 001°01'0 0.0
2018-Jan-27 23:00N 49°24' E 001°01'0 0.0
2018-Jan-27 22:30N 49°24' E 001°01'0 0.0
2018-Jan-27 22:00N 49°24' E 001°01'0 0.0
2018-Jan-27 21:30N 49°24' E 001°01'0 0.0
2018-Jan-27 21:00N 49°24' E 001°01'0 0.0
2018-Jan-27 20:27N 49°24' E 001°01'0 1.1
2018-Jan-27 20:01N 49°23' E 001°01'2 4.5
2018-Jan-27 19:30N 49°21' E 000°59'4 7.5
2018-Jan-27 19:00N 49°24' E 000°56'5 9.8
2018-Jan-27 18:30N 49°29' E 000°54'510.9
2018-Jan-27 18:00N 49°24' E 000°52'4 8.9
2018-Jan-27 17:30N 49°28' E 000°49'510.2
2018-Jan-27 17:00N 49°31' E 000°43'611.1
2018-Jan-27 16:30N 49°27' E 000°39'510.1
2018-Jan-27 16:00N 49°29' E 000°31'611.8
2018-Jan-27 15:31N 49°27' E 000°23'612.4
2018-Jan-27 15:00N 49°26' E 000°14'612.4
2018-Jan-27 14:30N 49°27' E 000°04'612.3
2018-Jan-27 14:01N 49°29' W 000°05'4 7.1
2018-Jan-27 13:29N 49°29' W 000°10'0 0.1
2018-Jan-27 13:00N 49°30' W 000°10'0 0.1
2018-Jan-27 12:30N 49°29' W 000°10'0 0.0
2018-Jan-27 11:59N 49°29' W 000°10'0 0.0
2018-Jan-27 11:29N 49°29' W 000°10'0 0.1
2018-Jan-27 10:59N 49°29' W 000°10'0 0.0
2018-Jan-27 10:30N 49°29' W 000°10'0 0.0
2018-Jan-27 09:59N 49°29' W 000°10'0 0.0
2018-Jan-27 09:29N 49°29' W 000°10'0 0.0
2018-Jan-27 08:59N 49°29' W 000°10'0 0.0
2018-Jan-27 08:29N 49°29' W 000°10'0 0.0
2018-Jan-27 07:56N 49°29' W 000°10'0 0.1
2018-Jan-27 07:29N 49°30' W 000°10'0 0.1
2018-Jan-27 07:00N 49°30' W 000°10'0 0.1
2018-Jan-27 06:29N 49°29' W 000°10'0 0.1
2018-Jan-27 05:59N 49°29' W 000°10'0 0.0
2018-Jan-27 05:30N 49°29' W 000°10'0 0.0
2018-Jan-27 04:59N 49°29' W 000°10'0 0.0
2018-Jan-27 04:29N 49°29' W 000°10'0 0.0
2018-Jan-27 03:59N 49°29' W 000°10'0 0.0
2018-Jan-27 03:26N 49°29' W 000°10'0 0.0
2018-Jan-27 02:59N 49°29' W 000°10'0 0.0
2018-Jan-27 02:29N 49°29' W 000°10'0 0.1
2018-Jan-27 02:00N 49°29' W 000°10'  

Dump ship's entire track history